Time;durP1;ratioP1;P1;durP2;ratioP2;P2;SDS_P1;SDS_P2;PMS_P1;PMS_P2;Temp;Humidity;BMP_temperature;BMP_pressure;BME280_temperature;BME280_humidity;BME280_pressure;Samples;Min_cycle;Max_cycle;Signal;HPM_P1;HPM_P2
2021/11/24 00:01:55;;;;;;;5.18;3.80;;;;;;;;;;143730;565;46020;-59
2021/11/24 00:04:22;;;;;;;7.55;4.93;;;;;;;;;;143730;575;46022;-59
2021/11/24 00:06:50;;;;;;;7.57;5.62;;;;;;;;;;143729;578;46010;-59
2021/11/24 00:09:18;;;;;;;6.97;5.07;;;;;;;;;;143728;701;46021;-59
2021/11/24 00:11:50;;;;;;;6.07;4.82;;;;;;;;;;143730;566;46020;-59
2021/11/24 00:14:20;;;;;;;3.97;3.47;;;;;;;;;;143730;593;46022;-59
2021/11/24 00:16:48;;;;;;;7.85;5.18;;;;;;;;;;143729;741;46010;-60
2021/11/24 00:19:16;;;;;;;5.10;4.05;;;;;;;;;;143729;621;46020;-60
2021/11/24 00:21:45;;;;;;;7.10;5.40;;;;;;;;;;143730;602;46020;-59
2021/11/24 00:24:14;;;;;;;9.82;7.00;;;;;;;;;;143730;581;46023;-59
2021/11/24 00:26:41;;;;;;;6.05;4.37;;;;;;;;;;143726;627;47010;-59
2021/11/24 00:29:09;;;;;;;8.63;6.05;;;;;;;;;;143728;614;46907;-59
2021/11/24 00:31:37;;;;;;;11.85;9.52;;;;;;;;;;143730;626;47010;-59
2021/11/24 00:34:05;;;;;;;16.30;11.60;;;;;;;;;;143729;608;46022;-60
2021/11/24 00:36:33;;;;;;;6.93;5.18;;;;;;;;;;143730;599;46010;-59
2021/11/24 00:39:00;;;;;;;8.75;6.75;;;;;;;;;;143728;575;46021;-59
2021/11/24 00:41:27;;;;;;;11.85;6.95;;;;;;;;;;143732;574;46020;-59
2021/11/24 00:43:55;;;;;;;9.75;8.25;;;;;;;;;;143729;585;46022;-60
2021/11/24 00:46:23;;;;;;;11.38;8.77;;;;;;;;;;143730;564;46010;-60
2021/11/24 00:48:50;;;;;;;8.27;5.70;;;;;;;;;;143726;591;46020;-59
2021/11/24 00:51:19;;;;;;;9.63;6.53;;;;;;;;;;143731;590;46020;-59
2021/11/24 00:53:46;;;;;;;10.32;6.45;;;;;;;;;;143727;573;47021;-59
2021/11/24 00:56:14;;;;;;;8.70;6.22;;;;;;;;;;143730;613;46010;-59
2021/11/24 00:58:41;;;;;;;9.27;5.90;;;;;;;;;;143729;569;46020;-59
2021/11/24 01:01:09;;;;;;;9.55;6.10;;;;;;;;;;143731;588;46020;-59
2021/11/24 01:03:38;;;;;;;4.68;2.53;;;;;;;;;;143730;667;46022;-59
2021/11/24 01:06:05;;;;;;;4.12;2.95;;;;;;;;;;143731;581;45917;-60
2021/11/24 01:08:32;;;;;;;4.57;2.92;;;;;;;;;;143727;570;46020;-59
2021/11/24 01:11:00;;;;;;;1.62;1.52;;;;;;;;;;143732;583;46020;-60
2021/11/24 01:13:27;;;;;;;1.95;1.83;;;;;;;;;;143727;570;47020;-59
2021/11/24 01:15:54;;;;;;;2.35;1.67;;;;;;;;;;143727;649;47010;-59
2021/11/24 01:18:23;;;;;;;2.67;1.75;;;;;;;;;;143731;603;46020;-58
2021/11/24 01:20:50;;;;;;;2.42;2.10;;;;;;;;;;143732;569;46020;-60
2021/11/24 01:23:19;;;;;;;2.70;2.00;;;;;;;;;;143730;595;46022;-60
2021/11/24 01:25:47;;;;;;;3.15;1.87;;;;;;;;;;143729;647;46010;-60
2021/11/24 01:28:15;;;;;;;6.22;1.98;;;;;;;;;;143730;659;46020;-59
2021/11/24 01:30:43;;;;;;;2.62;1.98;;;;;;;;;;143732;623;46020;-61
2021/11/24 01:33:11;;;;;;;4.80;2.20;;;;;;;;;;143728;564;46023;-59
2021/11/24 01:35:38;;;;;;;2.83;2.50;;;;;;;;;;143731;688;45917;-59
2021/11/24 01:38:05;;;;;;;2.33;2.12;;;;;;;;;;143730;597;46020;-59
2021/11/24 01:40:32;;;;;;;2.67;1.70;;;;;;;;;;143729;564;46020;-60
2021/11/24 01:42:59;;;;;;;2.62;2.08;;;;;;;;;;143725;703;47020;-59
2021/11/24 01:45:27;;;;;;;2.50;1.75;;;;;;;;;;143726;589;46918;-59
2021/11/24 01:47:54;;;;;;;6.80;2.87;;;;;;;;;;143727;693;46020;-59
2021/11/24 01:50:21;;;;;;;3.50;2.67;;;;;;;;;;143728;573;46020;-59
2021/11/24 01:52:48;;;;;;;2.45;1.80;;;;;;;;;;143725;592;46022;-60
2021/11/24 01:55:16;;;;;;;2.75;1.87;;;;;;;;;;143726;571;46025;-59
2021/11/24 01:57:46;;;;;;;3.05;1.75;;;;;;;;;;143727;575;46020;-59
2021/11/24 02:00:16;;;;;;;2.28;1.37;;;;;;;;;;143730;565;46020;-60
2021/11/24 02:02:45;;;;;;;3.40;1.95;;;;;;;;;;143727;580;46023;-60
2021/11/24 02:05:13;;;;;;;3.62;2.53;;;;;;;;;;143727;602;46010;-60
2021/11/24 02:07:40;;;;;;;2.47;1.70;;;;;;;;;;143725;593;46021;-59
2021/11/24 02:10:08;;;;;;;3.33;2.25;;;;;;;;;;143729;569;46021;-59
2021/11/24 02:12:37;;;;;;;5.60;2.60;;;;;;;;;;143727;634;47020;-60
2021/11/24 02:15:06;;;;;;;5.72;2.00;;;;;;;;;;143725;612;47020;-60
2021/11/24 02:17:34;;;;;;;4.32;1.95;;;;;;;;;;143725;564;46021;-58
2021/11/24 02:20:01;;;;;;;3.47;2.08;;;;;;;;;;143729;569;46020;-60
2021/11/24 02:22:28;;;;;;;1.70;1.45;;;;;;;;;;143726;646;47022;-60
2021/11/24 02:24:55;;;;;;;6.68;2.08;;;;;;;;;;143724;566;47010;-61
2021/11/24 02:27:24;;;;;;;3.22;1.92;;;;;;;;;;143728;629;46020;-61
2021/11/24 02:35:03;;;;;;;3.92;1.65;;;;;;;;;;143729;592;45940;-61
2021/11/24 02:45:20;;;;;;;2.97;2.45;;;;;;;;;;143728;619;46021;-61
2021/11/24 02:47:49;;;;;;;2.22;2.03;;;;;;;;;;143726;614;46045;-61
2021/11/24 02:50:17;;;;;;;2.45;1.58;;;;;;;;;;143731;570;46020;-61
2021/11/24 02:52:46;;;;;;;4.50;1.95;;;;;;;;;;143728;617;46022;-61
2021/11/24 02:55:15;;;;;;;2.35;1.83;;;;;;;;;;143725;571;47010;-60
2021/11/24 02:57:48;;;;;;;2.60;2.30;;;;;;;;;;143727;599;46020;-61
2021/11/24 03:00:26;;;;;;;8.20;5.12;;;;;;;;;;143727;588;47010;-59
2021/11/24 03:02:55;;;;;;;3.62;2.33;;;;;;;;;;143724;638;47020;-60
2021/11/24 03:05:27;;;;;;;3.00;2.62;;;;;;;;;;143727;643;46010;-60
2021/11/24 03:07:56;;;;;;;2.58;2.12;;;;;;;;;;143726;634;46021;-61
2021/11/24 03:10:24;;;;;;;4.75;3.37;;;;;;;;;;143729;564;46020;-59
2021/11/24 03:12:51;;;;;;;5.03;3.35;;;;;;;;;;143729;652;46022;-60
2021/11/24 03:15:18;;;;;;;3.45;2.75;;;;;;;;;;143728;617;46011;-59
2021/11/24 03:17:49;;;;;;;5.30;3.22;;;;;;;;;;143724;566;47020;-60
2021/11/24 05:42:51;;;;;;;13.25;4.60;;;;;;;;;;143735;619;46020;-61
2021/11/24 05:48:32;;;;;;;6.55;3.95;;;;;;;;;;143728;616;46024;-59
2021/11/24 05:51:02;;;;;;;5.85;3.75;;;;;;;;;;143732;575;45921;-59
2021/11/24 05:53:35;;;;;;;7.82;4.22;;;;;;;;;;143727;581;46020;-60
2021/11/24 05:56:05;;;;;;;6.28;3.87;;;;;;;;;;143731;581;46020;-61
2021/11/24 05:58:41;;;;;;;11.77;4.47;;;;;;;;;;143727;630;46022;-61
2021/11/24 06:01:10;;;;;;;9.82;4.95;;;;;;;;;;143734;565;46919;-60
2021/11/24 06:03:39;;;;;;;6.35;4.53;;;;;;;;;;143728;564;46020;-60
2021/11/24 06:06:19;;;;;;;6.90;4.62;;;;;;;;;;143730;641;46020;-61
2021/11/24 06:08:54;;;;;;;8.82;7.82;;;;;;;;;;143728;604;46022;-61
2021/11/24 06:11:31;;;;;;;7.60;5.57;;;;;;;;;;143728;656;46028;-61
2021/11/24 06:14:07;;;;;;;7.57;5.05;;;;;;;;;;143729;583;46021;-61
2021/11/24 06:16:36;;;;;;;6.45;3.90;;;;;;;;;;143731;575;46020;-61
2021/11/24 06:19:05;;;;;;;5.35;3.05;;;;;;;;;;143728;570;46022;-60
2021/11/24 06:21:32;;;;;;;7.53;4.15;;;;;;;;;;143728;612;46021;-60
2021/11/24 06:23:59;;;;;;;4.12;2.97;;;;;;;;;;143728;587;46020;-61
2021/11/24 06:26:27;;;;;;;7.40;4.30;;;;;;;;;;143727;620;47010;-61
2021/11/24 06:28:54;;;;;;;4.65;2.92;;;;;;;;;;143724;646;47012;-59
2021/11/24 06:31:25;;;;;;;7.72;4.28;;;;;;;;;;143727;591;46010;-59
2021/11/24 06:33:58;;;;;;;8.57;4.55;;;;;;;;;;143726;730;46020;-60
2021/11/24 06:36:28;;;;;;;6.90;4.00;;;;;;;;;;143731;577;46021;-60
2021/11/24 06:39:05;;;;;;;5.05;3.80;;;;;;;;;;143728;666;46022;-59
2021/11/24 06:41:38;;;;;;;4.93;3.67;;;;;;;;;;143729;580;45921;-60
2021/11/24 06:44:16;;;;;;;6.32;4.40;;;;;;;;;;143730;623;46021;-60
2021/11/24 06:46:53;;;;;;;7.97;4.40;;;;;;;;;;143730;591;46020;-61
2021/11/24 06:49:35;;;;;;;6.70;4.32;;;;;;;;;;143728;570;46022;-61
2021/11/24 07:02:26;;;;;;;13.43;8.35;;;;;;;;;;143728;602;46010;-60
2021/11/24 07:05:00;;;;;;;17.58;9.63;;;;;;;;;;143726;703;46020;-60
2021/11/24 07:07:29;;;;;;;28.83;20.90;;;;;;;;;;143731;571;46021;-60
2021/11/24 07:09:56;;;;;;;11.12;7.62;;;;;;;;;;143725;577;47020;-60
2021/11/24 07:12:25;;;;;;;9.02;5.50;;;;;;;;;;143725;613;46020;-60
2021/11/24 07:14:58;;;;;;;17.37;12.37;;;;;;;;;;143724;693;46021;-60
2021/11/24 07:17:27;;;;;;;14.77;9.32;;;;;;;;;;143729;607;46020;-60
2021/11/24 07:20:01;;;;;;;7.80;5.10;;;;;;;;;;143727;613;46022;-60
2021/11/24 07:22:34;;;;;;;9.57;6.22;;;;;;;;;;143726;589;46918;-60
2021/11/24 07:25:07;;;;;;;13.50;7.53;;;;;;;;;;143727;569;46020;-60
2021/11/24 07:27:45;;;;;;;15.30;10.40;;;;;;;;;;143730;649;46020;-60
2021/11/24 08:09:09;;;;;;;9.60;4.57;;;;;;;;;;143732;601;46020;-59
2021/11/24 08:11:36;;;;;;;6.65;4.60;;;;;;;;;;143727;597;47020;-59
2021/11/24 08:14:05;;;;;;;12.77;4.80;;;;;;;;;;143728;593;46020;-59
2021/11/24 08:16:33;;;;;;;7.35;3.85;;;;;;;;;;143725;569;47020;-59
2021/11/24 08:19:01;;;;;;;8.98;4.50;;;;;;;;;;143728;610;46020;-59
2021/11/24 08:21:29;;;;;;;15.25;10.85;;;;;;;;;;143725;571;46023;-59
2021/11/24 08:23:57;;;;;;;18.55;8.15;;;;;;;;;;143724;624;47010;-58
2021/11/24 08:26:25;;;;;;;11.23;7.50;;;;;;;;;;143726;573;46020;-59
2021/11/24 08:28:52;;;;;;;9.95;6.82;;;;;;;;;;143726;579;46021;-59
2021/11/24 08:31:19;;;;;;;9.32;6.18;;;;;;;;;;143723;573;49020;-58
2021/11/24 08:33:46;;;;;;;6.35;4.37;;;;;;;;;;143724;581;47011;-59
2021/11/24 08:36:15;;;;;;;10.10;4.97;;;;;;;;;;143725;609;46021;-58
2021/11/24 08:38:43;;;;;;;8.55;4.62;;;;;;;;;;143727;565;46020;-59
2021/11/24 08:41:12;;;;;;;6.60;4.18;;;;;;;;;;143728;576;46022;-59
2021/11/24 08:43:40;;;;;;;9.02;4.35;;;;;;;;;;143728;595;46010;-58
2021/11/24 08:46:08;;;;;;;13.10;5.40;;;;;;;;;;143726;582;46020;-59
2021/11/24 08:48:37;;;;;;;8.15;4.35;;;;;;;;;;143729;633;46020;-59
2021/11/24 08:51:06;;;;;;;9.43;4.10;;;;;;;;;;143727;574;47020;-59
2021/11/24 08:53:34;;;;;;;6.75;4.35;;;;;;;;;;143726;574;47010;-59
2021/11/24 08:56:01;;;;;;;8.38;5.30;;;;;;;;;;143728;570;46020;-59
2021/11/24 08:58:27;;;;;;;7.68;4.43;;;;;;;;;;143727;646;46021;-59
2021/11/24 09:00:55;;;;;;;7.72;4.15;;;;;;;;;;143727;621;47020;-59
2021/11/24 09:03:24;;;;;;;7.18;4.47;;;;;;;;;;143728;563;46919;-59
2021/11/24 09:06:09;;;;;;;6.12;4.82;;;;;;;;;;143729;744;46021;-60
2021/11/24 09:08:48;;;;;;;7.53;4.78;;;;;;;;;;143731;591;46020;-59
2021/11/24 09:13:55;;;;;;;5.87;4.22;;;;;;;;;;143729;578;47010;-59
2021/11/24 09:16:23;;;;;;;7.60;4.25;;;;;;;;;;143727;582;46020;-59
2021/11/24 09:18:50;;;;;;;8.55;4.45;;;;;;;;;;143730;689;46020;-59
2021/11/24 09:21:19;;;;;;;4.55;3.62;;;;;;;;;;143728;650;47021;-59
2021/11/24 09:23:48;;;;;;;9.68;4.40;;;;;;;;;;143728;564;46010;-59
2021/11/24 09:26:38;;;;;;;7.93;3.83;;;;;;;;;;143728;577;47020;-59
2021/11/24 09:29:07;;;;;;;10.35;4.62;;;;;;;;;;143729;577;46021;-58
2021/11/24 09:31:36;;;;;;;6.75;4.00;;;;;;;;;;143730;564;46022;-57
2021/11/24 09:34:06;;;;;;;10.98;4.30;;;;;;;;;;143726;589;47010;-59
2021/11/24 09:36:35;;;;;;;8.50;4.20;;;;;;;;;;143730;579;46021;-59
2021/11/24 09:39:09;;;;;;;8.55;4.35;;;;;;;;;;143730;578;46020;-59
2021/11/24 09:41:47;;;;;;;11.30;4.62;;;;;;;;;;143726;570;46022;-59
2021/11/24 09:44:14;;;;;;;7.90;4.28;;;;;;;;;;143731;569;45920;-58
2021/11/24 09:46:48;;;;;;;7.37;4.55;;;;;;;;;;143730;672;46020;-58
2021/11/24 09:49:24;;;;;;;12.63;4.75;;;;;;;;;;143732;592;46020;-59
2021/11/24 09:51:56;;;;;;;8.25;4.87;;;;;;;;;;143729;585;46023;-59
2021/11/24 09:54:29;;;;;;;7.28;4.37;;;;;;;;;;143730;595;46010;-59
2021/11/24 09:56:58;;;;;;;8.23;4.85;;;;;;;;;;143728;593;46021;-59
2021/11/24 09:59:29;;;;;;;8.15;4.78;;;;;;;;;;143730;636;46020;-59
2021/11/24 10:02:01;;;;;;;7.85;4.95;;;;;;;;;;143726;585;51022;-59
2021/11/24 10:04:29;;;;;;;7.40;4.85;;;;;;;;;;143728;591;46919;-59
2021/11/24 10:06:58;;;;;;;8.48;4.60;;;;;;;;;;143730;588;46020;-58
2021/11/24 10:12:22;;;;;;;7.65;5.22;;;;;;;;;;143761;583;44021;-59
2021/11/24 10:14:59;;;;;;;7.78;4.75;;;;;;;;;;143757;587;45918;-59
2021/11/24 10:17:33;;;;;;;6.65;4.78;;;;;;;;;;143759;590;45020;-59
2021/11/24 10:20:17;;;;;;;10.73;5.10;;;;;;;;;;143760;621;45020;-58
2021/11/24 10:22:50;;;;;;;7.62;4.40;;;;;;;;;;143759;585;45022;-59
2021/11/24 10:25:28;;;;;;;7.72;4.90;;;;;;;;;;143758;563;45918;-59
2021/11/24 10:28:25;;;;;;;12.40;5.22;;;;;;;;;;143755;587;46913;-58
2021/11/24 10:31:05;;;;;;;9.05;5.68;;;;;;;;;;143762;713;45020;-58
2021/11/24 10:33:35;;;;;;;8.77;6.12;;;;;;;;;;143759;577;45022;-59
2021/11/24 10:36:16;;;;;;;8.07;5.05;;;;;;;;;;143760;642;44918;-59
2021/11/24 10:38:52;;;;;;;7.37;5.18;;;;;;;;;;143759;584;45912;-58
2021/11/24 10:41:39;;;;;;;10.25;7.12;;;;;;;;;;143760;700;45020;-59
2021/11/24 10:44:30;;;;;;;12.98;8.27;;;;;;;;;;143759;633;46023;-59
2021/11/24 10:47:11;;;;;;;9.15;6.45;;;;;;;;;;143759;639;45918;-59
2021/11/24 10:49:53;;;;;;;12.60;8.75;;;;;;;;;;143760;603;45021;-58
2021/11/24 10:52:33;;;;;;;8.82;5.70;;;;;;;;;;143762;621;45020;-59
2021/11/24 11:05:58;;;;;;;6.95;4.82;;;;;;;;;;143760;566;45020;-59
2021/11/24 11:08:36;;;;;;;10.48;5.68;;;;;;;;;;143742;567;46028;-58
2021/11/24 11:16:14;;;;;;;8.45;5.00;;;;;;;;;;143732;645;45020;-59
2021/11/24 11:18:51;;;;;;;13.82;5.68;;;;;;;;;;143731;589;45918;-59
2021/11/24 11:21:19;;;;;;;7.22;5.12;;;;;;;;;;143726;579;47020;-59
2021/11/24 11:23:55;;;;;;;12.48;4.90;;;;;;;;;;143732;573;46020;-59
2021/11/24 11:26:28;;;;;;;12.20;5.87;;;;;;;;;;143731;652;46022;-59
2021/11/24 11:28:57;;;;;;;7.62;4.95;;;;;;;;;;143731;585;45918;-58
2021/11/24 11:31:30;;;;;;;11.40;6.03;;;;;;;;;;143731;564;46020;-59
2021/11/24 11:34:02;;;;;;;13.18;5.35;;;;;;;;;;143732;601;46020;-59
2021/11/24 11:36:35;;;;;;;10.50;5.85;;;;;;;;;;143731;612;46023;-59
2021/11/24 11:39:07;;;;;;;8.70;4.82;;;;;;;;;;143731;590;45918;-59
2021/11/24 11:44:12;;;;;;;6.90;4.62;;;;;;;;;;143732;569;46020;-58
2021/11/24 11:46:51;;;;;;;11.07;5.60;;;;;;;;;;143730;572;46022;-59
2021/11/24 11:49:29;;;;;;;6.53;4.35;;;;;;;;;;143728;569;46919;-58
2021/11/24 11:52:15;;;;;;;7.22;4.03;;;;;;;;;;143728;587;46020;-58
2021/11/24 11:54:46;;;;;;;8.98;4.20;;;;;;;;;;143732;713;46020;-59
2021/11/24 11:57:22;;;;;;;6.80;4.60;;;;;;;;;;143727;566;47020;-59
2021/11/24 12:00:06;;;;;;;7.43;4.65;;;;;;;;;;143731;638;45919;-58
2021/11/24 12:02:46;;;;;;;7.60;4.28;;;;;;;;;;143728;737;46020;-59
2021/11/24 12:05:16;;;;;;;9.13;4.65;;;;;;;;;;143732;591;46021;-59
2021/11/24 12:08:08;;;;;;;7.50;4.65;;;;;;;;;;143729;582;46022;-59
2021/11/24 12:10:57;;;;;;;8.65;5.22;;;;;;;;;;143730;587;46010;-59
2021/11/24 12:13:34;;;;;;;8.45;4.32;;;;;;;;;;143727;594;46021;-59
2021/11/24 12:16:47;;;;;;;9.38;4.85;;;;;;;;;;143729;657;47010;-59
2021/11/24 12:19:21;;;;;;;11.63;6.12;;;;;;;;;;143728;614;46022;-58
2021/11/24 12:21:52;;;;;;;8.98;5.00;;;;;;;;;;143729;590;46020;-59
2021/11/24 12:24:37;;;;;;;8.38;5.72;;;;;;;;;;143728;748;46020;-58
2021/11/24 12:27:05;;;;;;;11.12;5.82;;;;;;;;;;143731;627;46021;-58
2021/11/24 12:29:48;;;;;;;17.00;5.80;;;;;;;;;;143728;596;46022;-58
2021/11/24 12:32:25;;;;;;;8.18;4.80;;;;;;;;;;143729;575;46021;-59
2021/11/24 12:35:00;;;;;;;7.28;4.72;;;;;;;;;;143730;632;46021;-58
2021/11/24 12:37:37;;;;;;;6.73;4.97;;;;;;;;;;143732;577;46020;-58
2021/11/24 12:40:14;;;;;;;7.72;4.70;;;;;;;;;;143732;583;46022;-59
2021/11/24 12:42:54;;;;;;;21.40;15.48;;;;;;;;;;143730;615;46020;-60
2021/11/24 12:45:23;;;;;;;42.58;29.70;;;;;;;;;;143729;604;46020;-58
2021/11/24 12:48:07;;;;;;;49.38;33.13;;;;;;;;;;143728;566;47010;-59
2021/11/24 12:50:37;;;;;;;33.30;22.55;;;;;;;;;;143730;578;46022;-59
2021/11/24 12:53:08;;;;;;;11.10;6.75;;;;;;;;;;143729;601;46020;-59
2021/11/24 12:55:37;;;;;;;13.73;9.57;;;;;;;;;;143729;584;46020;-59
2021/11/24 12:58:25;;;;;;;26.20;15.30;;;;;;;;;;143729;589;46020;-59
2021/11/24 13:00:54;;;;;;;18.08;12.25;;;;;;;;;;143731;608;46022;-59
2021/11/24 13:03:30;;;;;;;26.55;18.10;;;;;;;;;;143729;609;46010;-59
2021/11/24 13:05:59;;;;;;;32.97;21.95;;;;;;;;;;143727;577;46020;-59
2021/11/24 13:08:26;;;;;;;26.77;18.42;;;;;;;;;;143730;602;46020;-59
2021/11/24 13:11:09;;;;;;;17.02;8.63;;;;;;;;;;143727;587;47021;-59
2021/11/24 13:13:37;;;;;;;13.77;6.80;;;;;;;;;;143730;631;46917;-59
2021/11/24 13:16:19;;;;;;;14.98;8.73;;;;;;;;;;143727;690;47020;-59
2021/11/24 13:18:58;;;;;;;26.52;12.07;;;;;;;;;;143731;593;47010;-59
2021/11/24 13:21:27;;;;;;;26.00;14.15;;;;;;;;;;143728;587;46022;-59
2021/11/24 13:24:06;;;;;;;63.67;41.05;;;;;;;;;;143730;676;45915;-59
2021/11/24 13:26:33;;;;;;;36.65;23.60;;;;;;;;;;143727;693;47021;-59
2021/11/24 13:29:01;;;;;;;57.50;40.00;;;;;;;;;;143730;664;46046;-59
2021/11/24 13:31:29;;;;;;;20.90;12.95;;;;;;;;;;143727;566;47022;-59
2021/11/24 13:33:57;;;;;;;20.48;12.02;;;;;;;;;;143731;637;46021;-59
2021/11/24 13:36:25;;;;;;;24.40;15.73;;;;;;;;;;143727;577;46020;-59
2021/11/24 13:38:55;;;;;;;33.55;21.12;;;;;;;;;;143729;605;46020;-58
2021/11/24 13:41:36;;;;;;;34.92;20.00;;;;;;;;;;143728;576;47020;-59
2021/11/24 13:44:06;;;;;;;32.63;19.75;;;;;;;;;;143729;574;46010;-59
2021/11/24 13:46:47;;;;;;;13.35;8.95;;;;;;;;;;143726;565;46910;-59
2021/11/24 13:49:21;;;;;;;13.88;8.13;;;;;;;;;;143730;641;46021;-59
2021/11/24 13:52:01;;;;;;;19.05;11.90;;;;;;;;;;143728;594;46022;-59
2021/11/24 13:54:29;;;;;;;16.87;10.98;;;;;;;;;;143724;631;46021;-59
2021/11/24 13:57:04;;;;;;;25.17;17.08;;;;;;;;;;143730;576;46021;-59
2021/11/24 13:59:36;;;;;;;22.47;17.00;;;;;;;;;;143731;580;46020;-59
2021/11/24 14:02:15;;;;;;;20.50;13.10;;;;;;;;;;143730;605;46022;-59
2021/11/24 14:04:46;;;;;;;20.37;11.95;;;;;;;;;;143728;564;46010;-59
2021/11/24 14:07:19;;;;;;;14.52;7.07;;;;;;;;;;143729;684;46020;-59
2021/11/24 14:10:09;;;;;;;12.35;6.30;;;;;;;;;;143732;572;46020;-60
2021/11/24 14:12:40;;;;;;;13.32;8.95;;;;;;;;;;143728;636;46023;-59
2021/11/24 14:15:29;;;;;;;13.43;7.37;;;;;;;;;;143730;587;45917;-60
2021/11/24 14:18:01;;;;;;;12.43;7.53;;;;;;;;;;143725;585;47021;-60
2021/11/24 14:20:36;;;;;;;16.85;12.05;;;;;;;;;;143729;629;46020;-59
2021/11/24 14:23:12;;;;;;;14.85;9.07;;;;;;;;;;143727;581;46022;-59
2021/11/24 14:25:51;;;;;;;13.68;7.45;;;;;;;;;;143725;596;47010;-59
2021/11/24 14:28:28;;;;;;;13.88;7.32;;;;;;;;;;143728;591;46020;-59
2021/11/24 14:30:58;;;;;;;13.57;6.25;;;;;;;;;;143732;661;46020;-59
2021/11/24 14:33:30;;;;;;;14.50;9.30;;;;;;;;;;143726;613;46023;-59
2021/11/24 14:35:58;;;;;;;14.93;7.93;;;;;;;;;;143725;571;47010;-59
2021/11/24 14:38:26;;;;;;;11.07;7.35;;;;;;;;;;143725;564;47020;-59
2021/11/24 14:40:55;;;;;;;15.98;10.27;;;;;;;;;;143730;605;46021;-59
2021/11/24 14:43:23;;;;;;;14.50;10.20;;;;;;;;;;143727;600;46022;-59
2021/11/24 14:45:52;;;;;;;16.50;10.57;;;;;;;;;;143727;573;46010;-59
2021/11/24 14:48:20;;;;;;;12.23;8.05;;;;;;;;;;143727;579;46021;-59
2021/11/24 14:50:49;;;;;;;10.27;6.70;;;;;;;;;;143729;570;46020;-59
2021/11/24 14:53:16;;;;;;;11.43;7.05;;;;;;;;;;143726;569;46022;-59
2021/11/24 14:55:46;;;;;;;17.20;9.07;;;;;;;;;;143729;650;45917;-59
2021/11/24 14:58:13;;;;;;;18.65;10.45;;;;;;;;;;143722;577;47020;-59
2021/11/24 15:00:43;;;;;;;15.18;12.73;;;;;;;;;;143731;641;46020;-59
2021/11/24 15:03:13;;;;;;;14.23;10.07;;;;;;;;;;143729;603;46023;-59
2021/11/24 15:05:41;;;;;;;17.92;9.40;;;;;;;;;;143727;586;46915;-59
2021/11/24 15:08:12;;;;;;;12.85;8.90;;;;;;;;;;143727;569;46020;-59
2021/11/24 15:10:40;;;;;;;11.93;7.87;;;;;;;;;;143725;569;47010;-59
2021/11/24 15:13:07;;;;;;;17.45;9.43;;;;;;;;;;143727;598;47020;-59
2021/11/24 15:15:36;;;;;;;14.85;9.13;;;;;;;;;;143726;615;46917;-60
2021/11/24 15:18:04;;;;;;;17.42;12.05;;;;;;;;;;143728;589;46021;-59
2021/11/24 15:20:33;;;;;;;17.45;10.18;;;;;;;;;;143731;592;46020;-59
2021/11/24 15:23:01;;;;;;;14.82;10.55;;;;;;;;;;143727;589;47022;-59
2021/11/24 15:25:32;;;;;;;13.73;11.27;;;;;;;;;;143727;592;46010;-59
2021/11/24 15:28:00;;;;;;;14.18;8.68;;;;;;;;;;143723;717;46020;-59
2021/11/24 15:30:29;;;;;;;14.05;8.73;;;;;;;;;;143729;574;46020;-59
2021/11/24 15:32:59;;;;;;;11.10;8.30;;;;;;;;;;143727;614;47023;-59
2021/11/24 15:35:39;;;;;;;11.63;8.57;;;;;;;;;;143727;573;46020;-59
2021/11/24 15:38:13;;;;;;;14.70;9.00;;;;;;;;;;143727;574;46020;-59
2021/11/24 15:40:55;;;;;;;13.60;8.48;;;;;;;;;;143729;571;46021;-59
2021/11/24 15:43:44;;;;;;;11.35;8.30;;;;;;;;;;143727;575;46022;-59
2021/11/24 15:46:27;;;;;;;12.88;8.93;;;;;;;;;;143729;564;45917;-59
2021/11/24 15:49:02;;;;;;;14.90;9.20;;;;;;;;;;143728;566;46021;-60
2021/11/24 15:51:39;;;;;;;14.45;8.85;;;;;;;;;;143730;552;46020;-59
2021/11/24 15:54:17;;;;;;;14.73;9.00;;;;;;;;;;143729;664;46022;-60
2021/11/24 15:56:58;;;;;;;12.55;8.77;;;;;;;;;;143727;569;46917;-59
2021/11/24 15:59:46;;;;;;;12.75;8.30;;;;;;;;;;143728;580;46020;-60
2021/11/24 16:02:29;;;;;;;12.10;8.23;;;;;;;;;;143731;633;46020;-60
2021/11/24 16:05:09;;;;;;;14.13;8.80;;;;;;;;;;143728;591;46022;-59
2021/11/24 16:07:56;;;;;;;15.90;9.57;;;;;;;;;;143736;582;45917;-59
2021/11/24 16:10:34;;;;;;;15.32;9.00;;;;;;;;;;143757;605;45021;-59
2021/11/24 16:13:10;;;;;;;15.20;8.88;;;;;;;;;;143760;585;45020;-59
2021/11/24 16:15:50;;;;;;;14.13;8.93;;;;;;;;;;143757;586;45022;-59
2021/11/24 16:18:27;;;;;;;14.32;8.98;;;;;;;;;;143757;664;45918;-60
2021/11/24 16:21:03;;;;;;;15.23;8.88;;;;;;;;;;143756;591;45911;-60
2021/11/24 16:23:39;;;;;;;13.50;8.25;;;;;;;;;;143761;620;44021;-60
2021/11/24 16:26:12;;;;;;;12.30;8.75;;;;;;;;;;143757;570;45023;-59
2021/11/24 16:28:46;;;;;;;15.77;9.60;;;;;;;;;;143758;564;44916;-60
2021/11/24 16:31:23;;;;;;;19.98;9.95;;;;;;;;;;143755;573;45911;-59
2021/11/24 16:34:00;;;;;;;16.45;9.40;;;;;;;;;;143759;564;45020;-59
2021/11/24 16:36:34;;;;;;;12.60;9.55;;;;;;;;;;143758;590;45022;-60
2021/11/24 16:39:08;;;;;;;16.37;10.65;;;;;;;;;;143756;567;45918;-60
2021/11/24 16:41:44;;;;;;;17.48;9.75;;;;;;;;;;143756;593;45909;-60
2021/11/24 16:44:27;;;;;;;19.33;10.40;;;;;;;;;;143759;708;45020;-60
2021/11/24 16:47:03;;;;;;;17.65;11.35;;;;;;;;;;143759;570;44021;-59
2021/11/24 16:49:48;;;;;;;16.00;10.15;;;;;;;;;;143756;569;45916;-60
2021/11/24 16:52:27;;;;;;;14.65;8.63;;;;;;;;;;143757;593;45909;-59
2021/11/24 16:55:06;;;;;;;16.25;9.35;;;;;;;;;;143758;571;45021;-59
2021/11/24 16:57:42;;;;;;;14.52;8.68;;;;;;;;;;143757;585;45022;-59
2021/11/24 17:00:19;;;;;;;;;;;;;;;;;;143758;980;46010;-59
2021/11/24 17:02:56;;;;;;;10.05;8.05;;;;;;;;;;143764;607;44021;-59
2021/11/24 17:05:34;;;;;;;11.73;8.02;;;;;;;;;;143760;752;45020;-59
2021/11/24 17:08:17;;;;;;;15.45;8.20;;;;;;;;;;143746;569;45022;-60
2021/11/24 17:10:58;;;;;;;13.25;7.55;;;;;;;;;;143729;588;45909;-60
2021/11/24 17:13:33;;;;;;;13.20;8.13;;;;;;;;;;143727;644;46020;-60
2021/11/24 17:16:15;;;;;;;11.52;7.93;;;;;;;;;;143730;662;46020;-60
2021/11/24 17:18:54;;;;;;;12.77;8.57;;;;;;;;;;143730;585;45023;-59
2021/11/24 17:21:34;;;;;;;11.45;8.48;;;;;;;;;;143728;668;46020;-60
2021/11/24 17:24:14;;;;;;;17.27;8.27;;;;;;;;;;143729;658;46021;-60
2021/11/24 17:26:52;;;;;;;11.07;7.53;;;;;;;;;;143733;577;46026;-60
2021/11/24 17:29:30;;;;;;;13.00;8.68;;;;;;;;;;143728;613;46022;-59
2021/11/24 17:32:13;;;;;;;15.18;10.20;;;;;;;;;;143729;592;45484;-60
2021/11/24 17:34:51;;;;;;;13.90;7.97;;;;;;;;;;143728;640;46020;-60
2021/11/24 17:37:38;;;;;;;11.88;8.55;;;;;;;;;;143730;686;46020;-60
2021/11/24 17:58:27;;;;;;;12.63;7.78;;;;;;;;;;143733;586;45022;-60
2021/11/24 18:39:57;;;;;;;14.40;8.68;;;;;;;;;;143734;581;45021;-60
2021/11/24 18:42:27;;;;;;;11.43;7.10;;;;;;;;;;143729;648;46022;-61
2021/11/24 18:45:00;;;;;;;13.20;7.87;;;;;;;;;;143728;591;46010;-60
2021/11/24 18:47:34;;;;;;;12.82;8.07;;;;;;;;;;143729;720;46020;-60
2021/11/24 18:50:16;;;;;;;15.32;8.55;;;;;;;;;;143730;705;46020;-60
2021/11/24 19:03:06;;;;;;;11.20;7.68;;;;;;;;;;143730;575;45020;-59
2021/11/24 19:05:37;;;;;;;11.00;7.28;;;;;;;;;;143725;582;47010;-60
2021/11/24 19:08:05;;;;;;;12.63;7.75;;;;;;;;;;143725;709;47020;-60
2021/11/24 19:10:33;;;;;;;11.18;7.40;;;;;;;;;;143726;577;47010;-60
2021/11/24 19:13:00;;;;;;;13.77;8.18;;;;;;;;;;143725;565;47020;-59
2021/11/24 19:15:29;;;;;;;10.57;8.07;;;;;;;;;;143729;583;46010;-59
2021/11/24 19:17:58;;;;;;;14.65;9.18;;;;;;;;;;143726;735;46020;-60
2021/11/24 19:20:28;;;;;;;17.02;8.48;;;;;;;;;;143728;628;46020;-60
2021/11/24 19:22:59;;;;;;;14.00;8.05;;;;;;;;;;143727;584;46022;-60
2021/11/24 19:25:31;;;;;;;13.02;7.72;;;;;;;;;;143729;624;45922;-60
2021/11/24 19:28:05;;;;;;;15.10;7.87;;;;;;;;;;143728;702;46020;-60
2021/11/24 19:30:38;;;;;;;11.38;8.45;;;;;;;;;;143730;628;46021;-60
2021/11/24 19:33:12;;;;;;;13.80;7.82;;;;;;;;;;143728;572;46023;-60
2021/11/24 19:35:48;;;;;;;13.52;7.97;;;;;;;;;;143727;566;46020;-59
2021/11/24 19:38:26;;;;;;;12.40;7.55;;;;;;;;;;143728;703;46021;-61
2021/11/24 20:40:27;;;;;;;8.90;6.20;;;;;;;;;;143733;614;45022;-60
2021/11/24 20:42:57;;;;;;;12.95;7.90;;;;;;;;;;143730;585;46018;-60
2021/11/24 20:45:27;;;;;;;9.85;6.93;;;;;;;;;;143730;742;46023;-61
2021/11/24 20:47:59;;;;;;;9.55;7.00;;;;;;;;;;143728;588;46010;-60
2021/11/24 20:50:34;;;;;;;10.30;7.35;;;;;;;;;;143729;592;46020;-61
2021/11/24 20:53:06;;;;;;;11.27;7.70;;;;;;;;;;143731;570;46021;-59
2021/11/24 20:55:38;;;;;;;11.45;6.85;;;;;;;;;;143728;638;46022;-60
2021/11/24 20:58:10;;;;;;;11.55;6.53;;;;;;;;;;143729;563;46010;-61
2021/11/24 21:00:42;;;;;;;;;;;;;;;;;;143733;979;46021;-61
2021/11/24 21:03:22;;;;;;;11.23;7.20;;;;;;;;;;143736;588;46020;-60
2021/11/24 21:06:00;;;;;;;11.12;7.57;;;;;;;;;;143728;650;46022;-61
